sensor_id;sensor_type;location;lat;lon;timestamp;P1;durP1;ratioP1;P2;durP2;ratioP2
11287;SDS011;5700;50.996;7.044;2024-01-11T00:01:27;24.17;;;11.63;;
11287;SDS011;5700;50.996;7.044;2024-01-11T00:04:29;28.65;;;12.32;;
11287;SDS011;5700;50.996;7.044;2024-01-11T00:07:30;24.50;;;10.98;;
11287;SDS011;5700;50.996;7.044;2024-01-11T00:10:32;23.40;;;10.60;;
11287;SDS011;5700;50.996;7.044;2024-01-11T00:13:33;24.92;;;11.63;;
11287;SDS011;5700;50.996;7.044;2024-01-11T00:16:37;25.65;;;11.60;;
11287;SDS011;5700;50.996;7.044;2024-01-11T00:19:38;27.35;;;12.27;;
11287;SDS011;5700;50.996;7.044;2024-01-11T00:22:40;26.02;;;11.82;;
11287;SDS011;5700;50.996;7.044;2024-01-11T00:25:41;27.67;;;10.90;;
11287;SDS011;5700;50.996;7.044;2024-01-11T00:28:43;29.77;;;11.85;;
11287;SDS011;5700;50.996;7.044;2024-01-11T00:31:47;23.77;;;9.98;;
11287;SDS011;5700;50.996;7.044;2024-01-11T00:34:48;24.38;;;11.13;;
11287;SDS011;5700;50.996;7.044;2024-01-11T00:37:50;23.30;;;11.18;;
11287;SDS011;5700;50.996;7.044;2024-01-11T00:40:52;21.08;;;10.25;;
11287;SDS011;5700;50.996;7.044;2024-01-11T00:43:54;22.40;;;9.18;;
11287;SDS011;5700;50.996;7.044;2024-01-11T00:46:57;27.25;;;10.68;;
11287;SDS011;5700;50.996;7.044;2024-01-11T00:49:59;27.08;;;11.40;;
11287;SDS011;5700;50.996;7.044;2024-01-11T00:53:00;23.90;;;11.20;;
11287;SDS011;5700;50.996;7.044;2024-01-11T00:56:03;21.33;;;9.27;;
11287;SDS011;5700;50.996;7.044;2024-01-11T00:59:04;21.48;;;8.43;;
11287;SDS011;5700;50.996;7.044;2024-01-11T01:02:08;18.42;;;8.70;;
11287;SDS011;5700;50.996;7.044;2024-01-11T01:05:10;18.92;;;9.57;;
11287;SDS011;5700;50.996;7.044;2024-01-11T01:08:11;19.90;;;9.43;;
11287;SDS011;5700;50.996;7.044;2024-01-11T01:11:13;22.20;;;10.50;;
11287;SDS011;5700;50.996;7.044;2024-01-11T01:14:15;21.48;;;9.15;;
11287;SDS011;5700;50.996;7.044;2024-01-11T01:17:18;21.13;;;9.85;;
11287;SDS011;5700;50.996;7.044;2024-01-11T01:20:19;25.20;;;10.18;;
11287;SDS011;5700;50.996;7.044;2024-01-11T01:23:21;27.52;;;9.82;;
11287;SDS011;5700;50.996;7.044;2024-01-11T01:26:23;22.17;;;8.80;;
11287;SDS011;5700;50.996;7.044;2024-01-11T01:29:24;23.88;;;9.18;;
11287;SDS011;5700;50.996;7.044;2024-01-11T01:32:27;19.67;;;9.80;;
11287;SDS011;5700;50.996;7.044;2024-01-11T01:35:30;21.27;;;9.02;;
11287;SDS011;5700;50.996;7.044;2024-01-11T01:38:32;24.40;;;10.32;;
11287;SDS011;5700;50.996;7.044;2024-01-11T01:41:33;21.17;;;9.00;;
11287;SDS011;5700;50.996;7.044;2024-01-11T01:44:35;21.02;;;8.60;;
11287;SDS011;5700;50.996;7.044;2024-01-11T01:47:42;19.60;;;9.90;;
11287;SDS011;5700;50.996;7.044;2024-01-11T01:50:45;18.98;;;9.15;;
11287;SDS011;5700;50.996;7.044;2024-01-11T01:53:50;20.88;;;9.63;;
11287;SDS011;5700;50.996;7.044;2024-01-11T01:56:54;23.17;;;10.00;;
11287;SDS011;5700;50.996;7.044;2024-01-11T01:59:56;22.25;;;10.43;;
11287;SDS011;5700;50.996;7.044;2024-01-11T02:02:59;24.30;;;9.73;;
11287;SDS011;5700;50.996;7.044;2024-01-11T02:06:02;22.50;;;10.23;;
11287;SDS011;5700;50.996;7.044;2024-01-11T02:09:04;21.13;;;9.75;;
11287;SDS011;5700;50.996;7.044;2024-01-11T02:12:08;23.23;;;10.13;;
11287;SDS011;5700;50.996;7.044;2024-01-11T02:15:12;21.30;;;9.77;;
11287;SDS011;5700;50.996;7.044;2024-01-11T02:18:16;24.50;;;10.18;;
11287;SDS011;5700;50.996;7.044;2024-01-11T02:21:18;19.73;;;8.98;;
11287;SDS011;5700;50.996;7.044;2024-01-11T02:24:21;22.60;;;9.98;;
11287;SDS011;5700;50.996;7.044;2024-01-11T02:27:23;19.55;;;8.32;;
11287;SDS011;5700;50.996;7.044;2024-01-11T02:30:24;23.80;;;9.73;;
11287;SDS011;5700;50.996;7.044;2024-01-11T02:33:26;20.73;;;9.45;;
11287;SDS011;5700;50.996;7.044;2024-01-11T02:36:27;25.90;;;9.80;;
11287;SDS011;5700;50.996;7.044;2024-01-11T02:39:31;20.80;;;9.13;;
11287;SDS011;5700;50.996;7.044;2024-01-11T02:42:32;19.92;;;9.35;;
11287;SDS011;5700;50.996;7.044;2024-01-11T02:45:34;24.00;;;10.13;;
11287;SDS011;5700;50.996;7.044;2024-01-11T02:48:35;27.17;;;10.80;;
11287;SDS011;5700;50.996;7.044;2024-01-11T02:51:37;22.08;;;9.82;;
11287;SDS011;5700;50.996;7.044;2024-01-11T02:54:40;21.83;;;9.55;;
11287;SDS011;5700;50.996;7.044;2024-01-11T02:57:42;28.13;;;11.15;;
11287;SDS011;5700;50.996;7.044;2024-01-11T03:00:44;23.08;;;10.68;;
11287;SDS011;5700;50.996;7.044;2024-01-11T03:03:45;23.70;;;9.98;;
11287;SDS011;5700;50.996;7.044;2024-01-11T03:06:47;21.55;;;10.20;;
11287;SDS011;5700;50.996;7.044;2024-01-11T03:09:51;23.90;;;10.45;;
11287;SDS011;5700;50.996;7.044;2024-01-11T03:12:53;29.17;;;11.45;;
11287;SDS011;5700;50.996;7.044;2024-01-11T03:15:55;23.48;;;9.55;;
11287;SDS011;5700;50.996;7.044;2024-01-11T03:18:57;24.60;;;10.55;;
11287;SDS011;5700;50.996;7.044;2024-01-11T03:21:59;19.17;;;9.45;;
11287;SDS011;5700;50.996;7.044;2024-01-11T03:25:05;25.45;;;11.52;;
11287;SDS011;5700;50.996;7.044;2024-01-11T03:28:07;29.75;;;10.38;;
11287;SDS011;5700;50.996;7.044;2024-01-11T03:31:09;21.83;;;10.30;;
11287;SDS011;5700;50.996;7.044;2024-01-11T03:34:10;23.90;;;11.55;;
11287;SDS011;5700;50.996;7.044;2024-01-11T03:37:12;26.20;;;10.43;;
11287;SDS011;5700;50.996;7.044;2024-01-11T03:40:15;24.05;;;11.73;;
11287;SDS011;5700;50.996;7.044;2024-01-11T03:43:17;26.85;;;11.98;;
11287;SDS011;5700;50.996;7.044;2024-01-11T03:46:18;27.23;;;11.10;;
11287;SDS011;5700;50.996;7.044;2024-01-11T03:49:20;25.88;;;11.43;;
11287;SDS011;5700;50.996;7.044;2024-01-11T03:52:22;24.20;;;11.93;;
11287;SDS011;5700;50.996;7.044;2024-01-11T03:55:25;24.52;;;11.85;;
11287;SDS011;5700;50.996;7.044;2024-01-11T03:58:26;27.17;;;11.82;;
11287;SDS011;5700;50.996;7.044;2024-01-11T04:01:28;22.13;;;10.50;;
11287;SDS011;5700;50.996;7.044;2024-01-11T04:04:30;23.38;;;12.10;;
11287;SDS011;5700;50.996;7.044;2024-01-11T04:07:31;24.92;;;10.05;;
11287;SDS011;5700;50.996;7.044;2024-01-11T04:10:34;22.52;;;10.27;;
11287;SDS011;5700;50.996;7.044;2024-01-11T04:13:36;22.85;;;11.07;;
11287;SDS011;5700;50.996;7.044;2024-01-11T04:16:39;24.23;;;11.30;;
11287;SDS011;5700;50.996;7.044;2024-01-11T04:19:41;18.58;;;9.63;;
11287;SDS011;5700;50.996;7.044;2024-01-11T04:22:43;25.52;;;12.73;;
11287;SDS011;5700;50.996;7.044;2024-01-11T04:25:46;25.73;;;11.48;;
11287;SDS011;5700;50.996;7.044;2024-01-11T04:28:48;31.35;;;11.95;;
11287;SDS011;5700;50.996;7.044;2024-01-11T04:31:50;27.50;;;11.15;;
11287;SDS011;5700;50.996;7.044;2024-01-11T04:34:52;27.90;;;11.95;;
11287;SDS011;5700;50.996;7.044;2024-01-11T04:37:53;24.77;;;10.23;;
11287;SDS011;5700;50.996;7.044;2024-01-11T04:40:56;30.88;;;12.35;;
11287;SDS011;5700;50.996;7.044;2024-01-11T04:43:58;27.02;;;10.48;;
11287;SDS011;5700;50.996;7.044;2024-01-11T04:47:00;30.42;;;10.77;;
11287;SDS011;5700;50.996;7.044;2024-01-11T04:50:01;22.08;;;10.75;;
11287;SDS011;5700;50.996;7.044;2024-01-11T04:53:03;27.85;;;12.05;;
11287;SDS011;5700;50.996;7.044;2024-01-11T04:56:06;22.95;;;11.30;;
11287;SDS011;5700;50.996;7.044;2024-01-11T04:59:08;24.35;;;10.77;;
11287;SDS011;5700;50.996;7.044;2024-01-11T05:02:10;22.15;;;10.55;;
11287;SDS011;5700;50.996;7.044;2024-01-11T05:05:12;24.77;;;11.02;;
11287;SDS011;5700;50.996;7.044;2024-01-11T05:08:13;22.02;;;10.43;;
11287;SDS011;5700;50.996;7.044;2024-01-11T05:11:17;27.15;;;11.70;;
11287;SDS011;5700;50.996;7.044;2024-01-11T05:14:19;26.27;;;11.45;;
11287;SDS011;5700;50.996;7.044;2024-01-11T05:17:21;27.60;;;11.10;;
11287;SDS011;5700;50.996;7.044;2024-01-11T05:20:22;24.73;;;11.05;;
11287;SDS011;5700;50.996;7.044;2024-01-11T05:23:24;24.77;;;11.75;;
11287;SDS011;5700;50.996;7.044;2024-01-11T05:26:27;26.13;;;11.02;;
11287;SDS011;5700;50.996;7.044;2024-01-11T05:29:29;21.83;;;10.98;;
11287;SDS011;5700;50.996;7.044;2024-01-11T05:32:32;20.67;;;10.65;;
11287;SDS011;5700;50.996;7.044;2024-01-11T05:35:33;29.30;;;11.40;;
11287;SDS011;5700;50.996;7.044;2024-01-11T05:38:35;20.67;;;10.57;;
11287;SDS011;5700;50.996;7.044;2024-01-11T05:41:38;20.00;;;10.20;;
11287;SDS011;5700;50.996;7.044;2024-01-11T05:44:40;28.10;;;11.23;;
11287;SDS011;5700;50.996;7.044;2024-01-11T05:47:42;25.35;;;10.23;;
11287;SDS011;5700;50.996;7.044;2024-01-11T05:50:44;28.35;;;10.30;;
11287;SDS011;5700;50.996;7.044;2024-01-11T05:53:46;25.52;;;10.65;;
11287;SDS011;5700;50.996;7.044;2024-01-11T05:56:50;26.40;;;10.13;;
11287;SDS011;5700;50.996;7.044;2024-01-11T05:59:56;22.08;;;9.98;;
11287;SDS011;5700;50.996;7.044;2024-01-11T06:02:57;22.35;;;10.02;;
11287;SDS011;5700;50.996;7.044;2024-01-11T06:06:00;25.13;;;12.32;;
11287;SDS011;5700;50.996;7.044;2024-01-11T06:09:02;27.80;;;11.35;;
11287;SDS011;5700;50.996;7.044;2024-01-11T06:12:06;25.13;;;11.38;;
11287;SDS011;5700;50.996;7.044;2024-01-11T06:15:09;23.92;;;11.50;;
11287;SDS011;5700;50.996;7.044;2024-01-11T06:18:10;24.10;;;11.00;;
11287;SDS011;5700;50.996;7.044;2024-01-11T06:21:12;24.92;;;11.32;;
11287;SDS011;5700;50.996;7.044;2024-01-11T06:24:15;28.20;;;12.75;;
11287;SDS011;5700;50.996;7.044;2024-01-11T06:27:18;21.02;;;10.20;;
11287;SDS011;5700;50.996;7.044;2024-01-11T06:30:20;20.73;;;10.15;;
11287;SDS011;5700;50.996;7.044;2024-01-11T06:33:21;29.35;;;11.50;;
11287;SDS011;5700;50.996;7.044;2024-01-11T06:36:23;23.17;;;10.63;;
11287;SDS011;5700;50.996;7.044;2024-01-11T06:39:25;22.10;;;10.75;;
11287;SDS011;5700;50.996;7.044;2024-01-11T06:42:28;20.77;;;11.07;;
11287;SDS011;5700;50.996;7.044;2024-01-11T06:45:30;22.42;;;10.80;;
11287;SDS011;5700;50.996;7.044;2024-01-11T06:48:32;20.75;;;9.50;;
11287;SDS011;5700;50.996;7.044;2024-01-11T06:51:33;24.38;;;10.55;;
11287;SDS011;5700;50.996;7.044;2024-01-11T06:54:35;26.75;;;12.15;;
11287;SDS011;5700;50.996;7.044;2024-01-11T06:57:38;21.52;;;11.18;;
11287;SDS011;5700;50.996;7.044;2024-01-11T07:00:40;25.38;;;10.70;;
11287;SDS011;5700;50.996;7.044;2024-01-11T07:03:43;22.65;;;10.20;;
11287;SDS011;5700;50.996;7.044;2024-01-11T07:06:45;33.83;;;11.40;;
11287;SDS011;5700;50.996;7.044;2024-01-11T07:09:47;26.35;;;9.80;;
11287;SDS011;5700;50.996;7.044;2024-01-11T07:12:50;23.52;;;11.52;;
11287;SDS011;5700;50.996;7.044;2024-01-11T07:15:51;21.10;;;10.48;;
11287;SDS011;5700;50.996;7.044;2024-01-11T07:18:53;24.15;;;9.77;;
11287;SDS011;5700;50.996;7.044;2024-01-11T07:21:54;29.80;;;11.25;;
11287;SDS011;5700;50.996;7.044;2024-01-11T07:24:56;21.40;;;9.98;;
11287;SDS011;5700;50.996;7.044;2024-01-11T07:27:59;28.20;;;11.00;;
11287;SDS011;5700;50.996;7.044;2024-01-11T07:31:01;19.08;;;8.85;;
11287;SDS011;5700;50.996;7.044;2024-01-11T07:34:03;23.10;;;11.52;;
11287;SDS011;5700;50.996;7.044;2024-01-11T07:37:04;25.10;;;11.02;;
11287;SDS011;5700;50.996;7.044;2024-01-11T07:40:06;24.15;;;11.75;;
11287;SDS011;5700;50.996;7.044;2024-01-11T07:43:12;25.23;;;10.98;;
11287;SDS011;5700;50.996;7.044;2024-01-11T07:46:14;22.60;;;10.85;;
11287;SDS011;5700;50.996;7.044;2024-01-11T07:49:15;25.98;;;12.73;;
11287;SDS011;5700;50.996;7.044;2024-01-11T07:52:17;24.38;;;11.23;;
11287;SDS011;5700;50.996;7.044;2024-01-11T07:55:18;28.02;;;11.63;;
11287;SDS011;5700;50.996;7.044;2024-01-11T07:58:25;25.17;;;9.32;;
11287;SDS011;5700;50.996;7.044;2024-01-11T08:01:27;19.27;;;9.18;;
11287;SDS011;5700;50.996;7.044;2024-01-11T08:04:29;22.30;;;12.00;;
11287;SDS011;5700;50.996;7.044;2024-01-11T08:07:30;29.58;;;11.02;;
11287;SDS011;5700;50.996;7.044;2024-01-11T08:10:32;25.75;;;11.13;;
11287;SDS011;5700;50.996;7.044;2024-01-11T08:13:35;24.45;;;12.40;;
11287;SDS011;5700;50.996;7.044;2024-01-11T08:16:37;26.65;;;13.32;;
11287;SDS011;5700;50.996;7.044;2024-01-11T08:19:39;25.45;;;11.27;;
11287;SDS011;5700;50.996;7.044;2024-01-11T08:22:42;22.17;;;10.48;;
11287;SDS011;5700;50.996;7.044;2024-01-11T08:25:44;22.95;;;10.05;;
11287;SDS011;5700;50.996;7.044;2024-01-11T08:28:47;23.45;;;11.15;;
11287;SDS011;5700;50.996;7.044;2024-01-11T08:31:48;25.33;;;11.52;;
11287;SDS011;5700;50.996;7.044;2024-01-11T08:34:50;24.80;;;10.95;;
11287;SDS011;5700;50.996;7.044;2024-01-11T08:37:52;26.83;;;10.25;;
11287;SDS011;5700;50.996;7.044;2024-01-11T08:40:53;25.02;;;10.90;;
11287;SDS011;5700;50.996;7.044;2024-01-11T08:43:56;24.80;;;10.15;;
11287;SDS011;5700;50.996;7.044;2024-01-11T08:46:58;30.13;;;12.95;;
11287;SDS011;5700;50.996;7.044;2024-01-11T08:50:01;30.08;;;12.88;;
11287;SDS011;5700;50.996;7.044;2024-01-11T08:53:06;30.40;;;13.98;;
11287;SDS011;5700;50.996;7.044;2024-01-11T08:56:08;26.65;;;11.75;;
11287;SDS011;5700;50.996;7.044;2024-01-11T08:59:12;24.73;;;11.82;;
11287;SDS011;5700;50.996;7.044;2024-01-11T09:02:14;26.70;;;12.95;;
11287;SDS011;5700;50.996;7.044;2024-01-11T09:05:15;26.45;;;12.38;;
11287;SDS011;5700;50.996;7.044;2024-01-11T09:08:17;29.98;;;12.90;;
11287;SDS011;5700;50.996;7.044;2024-01-11T09:11:19;26.52;;;12.77;;
11287;SDS011;5700;50.996;7.044;2024-01-11T09:14:22;32.42;;;14.50;;
11287;SDS011;5700;50.996;7.044;2024-01-11T09:17:24;21.60;;;10.90;;
11287;SDS011;5700;50.996;7.044;2024-01-11T09:20:25;23.38;;;11.68;;
11287;SDS011;5700;50.996;7.044;2024-01-11T09:23:27;30.63;;;13.85;;
11287;SDS011;5700;50.996;7.044;2024-01-11T09:26:29;28.25;;;12.55;;
11287;SDS011;5700;50.996;7.044;2024-01-11T09:29:32;29.50;;;13.40;;
11287;SDS011;5700;50.996;7.044;2024-01-11T09:32:33;28.27;;;12.95;;
11287;SDS011;5700;50.996;7.044;2024-01-11T09:35:35;31.48;;;12.95;;
11287;SDS011;5700;50.996;7.044;2024-01-11T09:38:37;32.10;;;15.30;;
11287;SDS011;5700;50.996;7.044;2024-01-11T09:41:41;34.13;;;13.43;;
11287;SDS011;5700;50.996;7.044;2024-01-11T09:44:45;31.40;;;14.30;;
11287;SDS011;5700;50.996;7.044;2024-01-11T09:47:47;26.70;;;13.75;;
11287;SDS011;5700;50.996;7.044;2024-01-11T09:50:51;37.25;;;17.80;;
11287;SDS011;5700;50.996;7.044;2024-01-11T09:53:53;34.00;;;15.88;;
11287;SDS011;5700;50.996;7.044;2024-01-11T09:56:56;35.33;;;16.00;;
11287;SDS011;5700;50.996;7.044;2024-01-11T10:00:03;37.85;;;18.10;;
11287;SDS011;5700;50.996;7.044;2024-01-11T10:03:07;35.28;;;16.40;;
11287;SDS011;5700;50.996;7.044;2024-01-11T10:06:09;41.53;;;17.77;;
11287;SDS011;5700;50.996;7.044;2024-01-11T10:09:11;41.72;;;17.95;;
11287;SDS011;5700;50.996;7.044;2024-01-11T10:12:14;40.35;;;20.50;;
11287;SDS011;5700;50.996;7.044;2024-01-11T10:15:17;45.25;;;19.60;;
11287;SDS011;5700;50.996;7.044;2024-01-11T10:18:18;39.60;;;19.00;;
11287;SDS011;5700;50.996;7.044;2024-01-11T10:21:23;44.60;;;18.10;;
11287;SDS011;5700;50.996;7.044;2024-01-11T10:24:25;38.03;;;17.83;;
11287;SDS011;5700;50.996;7.044;2024-01-11T10:27:28;42.05;;;19.83;;
11287;SDS011;5700;50.996;7.044;2024-01-11T10:30:31;43.78;;;18.95;;
11287;SDS011;5700;50.996;7.044;2024-01-11T10:33:34;37.90;;;19.80;;
11287;SDS011;5700;50.996;7.044;2024-01-11T10:36:36;43.85;;;18.85;;
11287;SDS011;5700;50.996;7.044;2024-01-11T10:39:37;35.85;;;18.92;;
11287;SDS011;5700;50.996;7.044;2024-01-11T10:42:41;40.13;;;18.83;;
11287;SDS011;5700;50.996;7.044;2024-01-11T10:45:45;35.78;;;19.10;;
11287;SDS011;5700;50.996;7.044;2024-01-11T10:48:55;45.92;;;21.60;;
11287;SDS011;5700;50.996;7.044;2024-01-11T10:51:58;40.33;;;20.35;;
11287;SDS011;5700;50.996;7.044;2024-01-11T10:55:01;42.88;;;19.73;;
11287;SDS011;5700;50.996;7.044;2024-01-11T10:58:09;42.15;;;19.55;;
11287;SDS011;5700;50.996;7.044;2024-01-11T11:01:21;38.50;;;19.45;;
11287;SDS011;5700;50.996;7.044;2024-01-11T11:04:23;46.25;;;22.02;;
11287;SDS011;5700;50.996;7.044;2024-01-11T11:07:26;42.05;;;18.92;;
11287;SDS011;5700;50.996;7.044;2024-01-11T11:10:28;55.17;;;21.92;;
11287;SDS011;5700;50.996;7.044;2024-01-11T11:13:30;46.13;;;21.98;;
11287;SDS011;5700;50.996;7.044;2024-01-11T11:16:34;47.45;;;22.25;;
11287;SDS011;5700;50.996;7.044;2024-01-11T11:19:35;44.60;;;21.35;;
11287;SDS011;5700;50.996;7.044;2024-01-11T11:22:39;46.35;;;22.73;;
11287;SDS011;5700;50.996;7.044;2024-01-11T11:25:43;47.88;;;23.95;;
11287;SDS011;5700;50.996;7.044;2024-01-11T11:28:47;46.80;;;24.08;;
11287;SDS011;5700;50.996;7.044;2024-01-11T11:31:51;48.05;;;22.70;;
11287;SDS011;5700;50.996;7.044;2024-01-11T11:34:53;42.92;;;22.67;;
11287;SDS011;5700;50.996;7.044;2024-01-11T11:37:56;46.47;;;22.70;;
11287;SDS011;5700;50.996;7.044;2024-01-11T11:40:58;46.47;;;22.08;;
11287;SDS011;5700;50.996;7.044;2024-01-11T11:44:01;51.17;;;23.83;;
11287;SDS011;5700;50.996;7.044;2024-01-11T11:50:22;51.10;;;22.63;;
11287;SDS011;5700;50.996;7.044;2024-01-11T11:53:24;49.65;;;22.13;;
11287;SDS011;5700;50.996;7.044;2024-01-11T11:56:26;46.17;;;22.35;;
11287;SDS011;5700;50.996;7.044;2024-01-11T11:59:28;45.65;;;20.88;;
11287;SDS011;5700;50.996;7.044;2024-01-11T12:02:32;43.22;;;20.13;;
11287;SDS011;5700;50.996;7.044;2024-01-11T12:05:37;41.10;;;20.35;;
11287;SDS011;5700;50.996;7.044;2024-01-11T12:08:40;42.38;;;22.20;;
11287;SDS011;5700;50.996;7.044;2024-01-11T12:11:43;44.75;;;21.20;;
11287;SDS011;5700;50.996;7.044;2024-01-11T12:14:46;46.42;;;22.52;;
11287;SDS011;5700;50.996;7.044;2024-01-11T12:17:50;41.38;;;21.00;;
11287;SDS011;5700;50.996;7.044;2024-01-11T12:20:58;44.15;;;22.08;;
11287;SDS011;5700;50.996;7.044;2024-01-11T12:24:01;40.28;;;21.80;;
11287;SDS011;5700;50.996;7.044;2024-01-11T12:27:02;38.45;;;19.88;;
11287;SDS011;5700;50.996;7.044;2024-01-11T12:30:04;34.85;;;17.98;;
11287;SDS011;5700;50.996;7.044;2024-01-11T12:33:08;37.17;;;18.80;;
11287;SDS011;5700;50.996;7.044;2024-01-11T12:36:09;44.60;;;19.55;;
11287;SDS011;5700;50.996;7.044;2024-01-11T12:39:11;46.28;;;19.50;;
11287;SDS011;5700;50.996;7.044;2024-01-11T12:42:13;35.95;;;17.77;;
11287;SDS011;5700;50.996;7.044;2024-01-11T12:45:15;41.08;;;18.73;;
11287;SDS011;5700;50.996;7.044;2024-01-11T12:48:18;38.30;;;19.73;;
11287;SDS011;5700;50.996;7.044;2024-01-11T12:51:19;37.13;;;18.77;;
11287;SDS011;5700;50.996;7.044;2024-01-11T12:54:21;36.78;;;18.33;;
11287;SDS011;5700;50.996;7.044;2024-01-11T12:57:23;37.30;;;19.00;;
11287;SDS011;5700;50.996;7.044;2024-01-11T13:00:26;34.42;;;17.45;;
11287;SDS011;5700;50.996;7.044;2024-01-11T13:03:30;34.55;;;17.83;;
11287;SDS011;5700;50.996;7.044;2024-01-11T13:06:31;37.30;;;18.30;;
11287;SDS011;5700;50.996;7.044;2024-01-11T13:09:34;33.97;;;17.38;;
11287;SDS011;5700;50.996;7.044;2024-01-11T13:12:35;34.22;;;17.50;;
11287;SDS011;5700;50.996;7.044;2024-01-11T13:15:37;39.03;;;17.17;;
11287;SDS011;5700;50.996;7.044;2024-01-11T13:18:40;31.67;;;16.40;;
11287;SDS011;5700;50.996;7.044;2024-01-11T13:21:42;32.28;;;16.80;;
11287;SDS011;5700;50.996;7.044;2024-01-11T13:24:43;34.75;;;17.65;;
11287;SDS011;5700;50.996;7.044;2024-01-11T13:27:45;33.92;;;16.77;;
11287;SDS011;5700;50.996;7.044;2024-01-11T13:30:46;39.63;;;17.73;;
11287;SDS011;5700;50.996;7.044;2024-01-11T13:33:50;38.13;;;18.05;;
11287;SDS011;5700;50.996;7.044;2024-01-11T13:36:52;33.35;;;17.30;;
11287;SDS011;5700;50.996;7.044;2024-01-11T13:39:54;37.88;;;17.98;;
11287;SDS011;5700;50.996;7.044;2024-01-11T13:42:56;41.13;;;18.67;;
11287;SDS011;5700;50.996;7.044;2024-01-11T13:45:58;39.53;;;19.05;;
11287;SDS011;5700;50.996;7.044;2024-01-11T13:49:01;41.90;;;18.58;;
11287;SDS011;5700;50.996;7.044;2024-01-11T13:52:03;37.30;;;17.15;;
11287;SDS011;5700;50.996;7.044;2024-01-11T13:55:06;38.30;;;18.42;;
11287;SDS011;5700;50.996;7.044;2024-01-11T13:58:10;42.45;;;19.58;;
11287;SDS011;5700;50.996;7.044;2024-01-11T14:01:13;41.33;;;20.27;;
11287;SDS011;5700;50.996;7.044;2024-01-11T14:04:17;45.45;;;20.50;;
11287;SDS011;5700;50.996;7.044;2024-01-11T14:07:18;38.20;;;20.58;;
11287;SDS011;5700;50.996;7.044;2024-01-11T14:10:20;37.45;;;18.85;;
11287;SDS011;5700;50.996;7.044;2024-01-11T14:13:22;39.42;;;18.80;;
11287;SDS011;5700;50.996;7.044;2024-01-11T14:16:24;36.15;;;17.27;;
11287;SDS011;5700;50.996;7.044;2024-01-11T14:19:27;40.10;;;19.45;;
11287;SDS011;5700;50.996;7.044;2024-01-11T14:22:29;36.97;;;17.33;;
11287;SDS011;5700;50.996;7.044;2024-01-11T14:25:30;39.63;;;17.88;;
11287;SDS011;5700;50.996;7.044;2024-01-11T14:28:32;33.92;;;17.10;;
11287;SDS011;5700;50.996;7.044;2024-01-11T14:31:34;40.40;;;17.25;;
11287;SDS011;5700;50.996;7.044;2024-01-11T14:34:37;38.42;;;18.40;;
11287;SDS011;5700;50.996;7.044;2024-01-11T14:38:00;35.15;;;16.27;;
11287;SDS011;5700;50.996;7.044;2024-01-11T14:41:04;34.75;;;17.83;;
11287;SDS011;5700;50.996;7.044;2024-01-11T14:44:06;33.72;;;16.80;;
11287;SDS011;5700;50.996;7.044;2024-01-11T14:47:09;38.70;;;16.67;;
11287;SDS011;5700;50.996;7.044;2024-01-11T14:50:12;36.90;;;17.20;;
11287;SDS011;5700;50.996;7.044;2024-01-11T14:53:14;36.30;;;16.27;;
11287;SDS011;5700;50.996;7.044;2024-01-11T14:56:16;33.55;;;14.85;;
11287;SDS011;5700;50.996;7.044;2024-01-11T14:59:17;33.50;;;14.77;;
11287;SDS011;5700;50.996;7.044;2024-01-11T15:02:19;32.20;;;15.05;;
11287;SDS011;5700;50.996;7.044;2024-01-11T15:05:23;35.75;;;16.88;;
11287;SDS011;5700;50.996;7.044;2024-01-11T15:08:24;34.83;;;16.25;;
11287;SDS011;5700;50.996;7.044;2024-01-11T15:11:26;33.50;;;15.00;;
11287;SDS011;5700;50.996;7.044;2024-01-11T15:14:28;31.27;;;15.18;;
11287;SDS011;5700;50.996;7.044;2024-01-11T15:17:30;30.60;;;15.25;;
11287;SDS011;5700;50.996;7.044;2024-01-11T15:20:33;27.55;;;13.20;;
11287;SDS011;5700;50.996;7.044;2024-01-11T15:23:34;31.88;;;14.50;;
11287;SDS011;5700;50.996;7.044;2024-01-11T15:26:36;27.40;;;13.00;;
11287;SDS011;5700;50.996;7.044;2024-01-11T15:29:38;26.58;;;12.68;;
11287;SDS011;5700;50.996;7.044;2024-01-11T15:32:41;25.08;;;12.23;;
11287;SDS011;5700;50.996;7.044;2024-01-11T15:35:46;32.17;;;13.32;;
11287;SDS011;5700;50.996;7.044;2024-01-11T15:38:48;28.48;;;13.60;;
11287;SDS011;5700;50.996;7.044;2024-01-11T15:41:51;29.42;;;14.00;;
11287;SDS011;5700;50.996;7.044;2024-01-11T15:44:52;27.83;;;12.65;;
11287;SDS011;5700;50.996;7.044;2024-01-11T15:47:55;26.00;;;12.50;;
11287;SDS011;5700;50.996;7.044;2024-01-11T15:50:58;25.23;;;12.60;;
11287;SDS011;5700;50.996;7.044;2024-01-11T15:54:00;25.85;;;11.55;;
11287;SDS011;5700;50.996;7.044;2024-01-11T15:57:02;28.50;;;13.40;;
11287;SDS011;5700;50.996;7.044;2024-01-11T16:00:05;30.08;;;13.50;;
11287;SDS011;5700;50.996;7.044;2024-01-11T16:03:09;31.83;;;13.75;;
11287;SDS011;5700;50.996;7.044;2024-01-11T16:06:12;28.23;;;13.48;;
11287;SDS011;5700;50.996;7.044;2024-01-11T16:09:14;34.05;;;13.60;;
11287;SDS011;5700;50.996;7.044;2024-01-11T16:12:16;27.13;;;13.30;;
11287;SDS011;5700;50.996;7.044;2024-01-11T16:15:17;30.60;;;13.35;;
11287;SDS011;5700;50.996;7.044;2024-01-11T16:18:19;32.60;;;14.07;;
11287;SDS011;5700;50.996;7.044;2024-01-11T16:21:22;27.20;;;13.57;;
11287;SDS011;5700;50.996;7.044;2024-01-11T16:24:28;29.60;;;12.90;;
11287;SDS011;5700;50.996;7.044;2024-01-11T16:27:30;31.33;;;14.15;;
11287;SDS011;5700;50.996;7.044;2024-01-11T16:30:32;29.30;;;12.52;;
11287;SDS011;5700;50.996;7.044;2024-01-11T16:33:33;28.05;;;12.65;;
11287;SDS011;5700;50.996;7.044;2024-01-11T16:36:37;27.13;;;13.38;;
11287;SDS011;5700;50.996;7.044;2024-01-11T16:39:38;29.77;;;13.75;;
11287;SDS011;5700;50.996;7.044;2024-01-11T16:42:40;27.25;;;12.65;;
11287;SDS011;5700;50.996;7.044;2024-01-11T16:45:42;27.25;;;12.57;;
11287;SDS011;5700;50.996;7.044;2024-01-11T16:48:44;29.50;;;12.88;;
11287;SDS011;5700;50.996;7.044;2024-01-11T16:51:48;25.85;;;12.40;;
11287;SDS011;5700;50.996;7.044;2024-01-11T16:54:50;26.15;;;13.25;;
11287;SDS011;5700;50.996;7.044;2024-01-11T16:57:52;28.13;;;13.25;;
11287;SDS011;5700;50.996;7.044;2024-01-11T17:00:54;26.77;;;12.85;;
11287;SDS011;5700;50.996;7.044;2024-01-11T17:03:56;28.60;;;13.18;;
11287;SDS011;5700;50.996;7.044;2024-01-11T17:06:59;28.50;;;11.95;;
11287;SDS011;5700;50.996;7.044;2024-01-11T17:10:01;23.83;;;11.88;;
11287;SDS011;5700;50.996;7.044;2024-01-11T17:13:03;25.70;;;13.30;;
11287;SDS011;5700;50.996;7.044;2024-01-11T17:16:05;27.88;;;12.18;;
11287;SDS011;5700;50.996;7.044;2024-01-11T17:19:07;24.52;;;12.05;;
11287;SDS011;5700;50.996;7.044;2024-01-11T17:22:10;24.92;;;12.38;;
11287;SDS011;5700;50.996;7.044;2024-01-11T17:25:11;29.38;;;13.43;;
11287;SDS011;5700;50.996;7.044;2024-01-11T17:28:13;30.60;;;11.88;;
11287;SDS011;5700;50.996;7.044;2024-01-11T17:31:15;29.65;;;12.48;;
11287;SDS011;5700;50.996;7.044;2024-01-11T17:34:17;27.38;;;11.93;;
11287;SDS011;5700;50.996;7.044;2024-01-11T17:37:20;26.20;;;12.73;;
11287;SDS011;5700;50.996;7.044;2024-01-11T17:40:22;24.17;;;12.27;;
11287;SDS011;5700;50.996;7.044;2024-01-11T17:43:23;25.70;;;11.43;;
11287;SDS011;5700;50.996;7.044;2024-01-11T17:46:25;34.75;;;13.00;;
11287;SDS011;5700;50.996;7.044;2024-01-11T17:49:27;24.13;;;11.88;;
11287;SDS011;5700;50.996;7.044;2024-01-11T17:52:30;26.17;;;12.05;;
11287;SDS011;5700;50.996;7.044;2024-01-11T17:55:32;23.77;;;11.52;;
11287;SDS011;5700;50.996;7.044;2024-01-11T17:58:33;25.52;;;11.93;;
11287;SDS011;5700;50.996;7.044;2024-01-11T18:01:35;31.77;;;12.90;;
11287;SDS011;5700;50.996;7.044;2024-01-11T18:04:37;29.00;;;13.52;;
11287;SDS011;5700;50.996;7.044;2024-01-11T18:07:40;26.52;;;11.50;;